createdAt,value
2022-08-22T00:01:56.392Z,100.00
2022-08-22T00:02:49.119Z,100.00
2022-08-22T00:02:53.143Z,100.00
2022-08-22T00:03:03.566Z,100.00
2022-08-22T00:04:39.055Z,100.00
2022-08-22T00:07:25.717Z,100.00
2022-08-22T00:10:01.304Z,100.00
2022-08-22T00:12:52.422Z,100.00
2022-08-22T00:15:43.159Z,100.00
2022-08-22T00:18:20.398Z,100.00
2022-08-22T00:21:03.455Z,100.00
2022-08-22T00:23:40.415Z,100.00
2022-08-22T00:26:15.466Z,100.00
2022-08-22T00:29:00.201Z,100.00
2022-08-22T00:31:35.953Z,100.00
2022-08-22T00:34:02.546Z,100.00
2022-08-22T00:36:40.260Z,100.00
2022-08-22T00:39:18.997Z,100.00
2022-08-22T00:41:46.535Z,100.00
2022-08-22T00:44:23.669Z,100.00
2022-08-22T00:47:06.618Z,100.00
2022-08-22T00:49:55.997Z,100.00
2022-08-22T00:52:52.841Z,100.00
2022-08-22T00:55:37.233Z,100.00
2022-08-22T00:58:34.376Z,100.00
2022-08-22T01:01:05.723Z,100.00
2022-08-22T01:03:47.457Z,100.00
2022-08-22T01:06:28.718Z,100.00
2022-08-22T01:09:11.656Z,100.00
2022-08-22T01:12:00.321Z,100.00
2022-08-22T01:14:49.212Z,100.00
2022-08-22T01:17:48.702Z,100.00
2022-08-22T01:20:50.477Z,100.00
2022-08-22T01:23:52.290Z,100.00
2022-08-22T01:26:19.831Z,100.00
2022-08-22T01:29:04.367Z,100.00
2022-08-22T01:32:16.769Z,100.00
2022-08-22T01:35:08.622Z,100.00
2022-08-22T01:38:03.867Z,100.00
2022-08-22T01:40:53.500Z,100.00
2022-08-22T01:43:51.339Z,100.00
2022-08-22T01:46:42.835Z,100.00
2022-08-22T01:49:20.359Z,100.00
2022-08-22T01:51:53.790Z,100.00
2022-08-22T01:54:50.759Z,100.00
2022-08-22T01:57:19.235Z,100.00
2022-08-22T01:59:49.921Z,100.00
2022-08-22T02:02:46.928Z,100.00
2022-08-22T02:05:37.168Z,100.00
2022-08-22T02:08:13.608Z,100.00
2022-08-22T02:11:04.896Z,100.00
2022-08-22T02:14:02.037Z,100.00
2022-08-22T02:16:36.251Z,100.00
2022-08-22T02:19:03.659Z,100.00
2022-08-22T02:21:56.490Z,100.00
2022-08-22T02:24:40.743Z,100.00
2022-08-22T02:27:23.695Z,100.00
2022-08-22T02:30:11.516Z,100.00
2022-08-22T02:32:58.299Z,100.00
2022-08-22T02:35:34.628Z,100.00
2022-08-22T02:38:35.328Z,100.00
2022-08-22T02:41:26.464Z,100.00
2022-08-22T02:44:01.641Z,100.00
2022-08-22T02:46:43.637Z,100.00
2022-08-22T02:49:27.422Z,100.00
2022-08-22T02:52:14.800Z,100.00
2022-08-22T02:55:06.651Z,100.00
2022-08-22T02:57:43.781Z,100.00
2022-08-22T03:00:32.298Z,100.00
2022-08-22T03:02:59.514Z,100.00
2022-08-22T03:05:40.154Z,100.00
2022-08-22T03:08:26.866Z,100.00
2022-08-22T03:11:19.321Z,100.00
2022-08-22T03:13:49.432Z,100.00
2022-08-22T03:16:26.512Z,100.00
2022-08-22T03:19:08.518Z,100.00
2022-08-22T03:22:05.796Z,100.00
2022-08-22T03:24:48.441Z,100.00
2022-08-22T03:27:33.070Z,100.00
2022-08-22T03:30:05.965Z,100.00
2022-08-22T03:32:51.308Z,100.00
2022-08-22T03:35:39.312Z,100.00
2022-08-22T03:38:21.258Z,100.00
2022-08-22T03:41:03.161Z,100.00
2022-08-22T03:43:39.217Z,100.00
2022-08-22T03:46:41.055Z,100.00
2022-08-22T03:49:40.066Z,100.00
2022-08-22T03:53:01.764Z,100.00
2022-08-22T03:56:03.563Z,100.00
2022-08-22T03:58:39.162Z,100.00
2022-08-22T04:01:14.432Z,100.00
2022-08-22T04:03:57.381Z,100.00
2022-08-22T04:06:53.727Z,100.00
2022-08-22T04:09:53.457Z,100.00
2022-08-22T04:12:43.403Z,100.00
2022-08-22T04:15:20.172Z,100.00
2022-08-22T04:18:12.014Z,100.00
2022-08-22T04:20:56.296Z,100.00
2022-08-22T04:23:22.835Z,100.00
2022-08-22T04:26:12.393Z,100.00
2022-08-22T04:28:45.542Z,100.00
2022-08-22T04:31:17.195Z,100.00
2022-08-22T04:34:00.561Z,100.00
2022-08-22T04:36:39.648Z,100.00
2022-08-22T04:39:08.233Z,100.00
2022-08-22T04:41:53.536Z,100.00
2022-08-22T04:44:35.405Z,100.00
2022-08-22T04:47:09.756Z,100.00
2022-08-22T04:49:43.539Z,100.00
2022-08-22T04:52:30.992Z,100.00
2022-08-22T04:55:28.059Z,100.00
2022-08-22T04:58:06.502Z,100.00
2022-08-22T05:00:40.450Z,100.00
2022-08-22T05:03:13.107Z,100.00
2022-08-22T05:05:41.578Z,100.00
2022-08-22T05:08:13.422Z,100.00
2022-08-22T05:10:44.014Z,100.00
2022-08-22T05:13:18.846Z,100.00
2022-08-22T05:15:52.330Z,100.00
2022-08-22T05:18:29.705Z,100.00
2022-08-22T05:21:00.078Z,100.00
2022-08-22T05:23:36.361Z,100.00
2022-08-22T05:26:06.152Z,100.00
2022-08-22T05:28:36.122Z,100.00
2022-08-22T05:31:08.410Z,100.00
2022-08-22T05:33:43.667Z,100.00
2022-08-22T05:36:15.183Z,100.00
2022-08-22T05:38:50.833Z,100.00
2022-08-22T05:41:23.690Z,100.00
2022-08-22T05:43:52.275Z,100.00
2022-08-22T05:46:26.895Z,100.00
2022-08-22T05:48:59.863Z,100.00
2022-08-22T05:51:40.375Z,100.00
2022-08-22T05:54:16.480Z,100.00
2022-08-22T05:56:50.954Z,100.00
2022-08-22T05:59:29.310Z,100.00
2022-08-22T06:01:56.925Z,100.00
2022-08-22T06:04:42.402Z,100.00
2022-08-22T06:07:23.539Z,100.00
2022-08-22T06:10:05.608Z,100.00
2022-08-22T06:12:35.301Z,100.00
2022-08-22T06:15:12.140Z,100.00
2022-08-22T06:17:47.143Z,100.00
2022-08-22T06:20:20.912Z,100.00
2022-08-22T06:22:53.698Z,100.00
2022-08-22T06:25:26.717Z,100.00
2022-08-22T06:27:55.071Z,100.00
2022-08-22T06:30:26.309Z,100.00
2022-08-22T06:32:58.964Z,100.00
2022-08-22T06:35:53.303Z,100.00
2022-08-22T06:38:24.638Z,100.00
2022-08-22T06:40:54.319Z,100.00
2022-08-22T06:43:25.458Z,100.00
2022-08-22T06:45:53.474Z,100.00
2022-08-22T06:48:23.687Z,100.00
2022-08-22T06:50:58.582Z,100.00
2022-08-22T06:53:34.431Z,100.00
2022-08-22T06:56:03.459Z,100.00
2022-08-22T06:58:34.481Z,100.00
2022-08-22T07:01:12.205Z,100.00
2022-08-22T07:03:52.735Z,100.00
2022-08-22T07:06:39.596Z,100.00
2022-08-22T07:09:07.254Z,100.00
2022-08-22T07:11:39.637Z,100.00
2022-08-22T07:14:11.657Z,100.00
2022-08-22T07:16:45.643Z,100.00
2022-08-22T07:19:25.467Z,100.00
2022-08-22T07:21:52.508Z,100.00
2022-08-22T07:24:24.740Z,100.00
2022-08-22T07:27:02.721Z,100.00
2022-08-22T07:30:03.996Z,100.00
2022-08-22T07:32:42.123Z,100.00
2022-08-22T07:35:13.000Z,100.00
2022-08-22T07:37:47.787Z,100.00
2022-08-22T07:40:31.927Z,100.00
2022-08-22T07:43:03.216Z,100.00
2022-08-22T07:45:54.475Z,100.00
2022-08-22T07:48:33.950Z,100.00
2022-08-22T07:51:04.082Z,100.00
2022-08-22T07:53:39.329Z,100.00
2022-08-22T07:56:09.944Z,100.00
2022-08-22T07:58:39.786Z,100.00
2022-08-22T08:01:15.344Z,99.50
2022-08-22T08:03:44.073Z,98.05
2022-08-22T08:06:10.836Z,98.62
2022-08-22T08:08:44.626Z,98.42
2022-08-22T08:11:14.569Z,99.68
2022-08-22T08:13:45.152Z,98.78
2022-08-22T08:16:18.291Z,97.15
2022-08-22T08:18:48.454Z,99.51
2022-08-22T08:21:32.504Z,100.00
2022-08-22T08:24:01.309Z,100.00
2022-08-22T08:26:35.695Z,98.60
2022-08-22T08:29:04.067Z,97.36
2022-08-22T08:31:35.601Z,97.70
2022-08-22T08:34:23.660Z,100.00
2022-08-22T08:37:05.314Z,98.45
2022-08-22T08:39:48.556Z,98.04
2022-08-22T08:42:15.209Z,100.00
2022-08-22T08:44:41.770Z,100.00
2022-08-22T08:47:10.555Z,100.00
2022-08-22T08:50:12.407Z,99.81
2022-08-22T08:52:54.743Z,100.00
2022-08-22T08:55:45.016Z,100.00
2022-08-22T08:58:26.977Z,97.92
2022-08-22T09:01:27.650Z,100.00
2022-08-22T09:04:30.317Z,97.94
2022-08-22T09:07:18.821Z,96.72
2022-08-22T09:10:00.767Z,97.75
2022-08-22T09:13:12.439Z,94.60
2022-08-22T09:16:09.965Z,97.29
2022-08-22T09:19:01.658Z,92.67
2022-08-22T09:22:14.437Z,95.97
2022-08-22T09:24:48.962Z,95.37
2022-08-22T09:27:29.891Z,93.22
2022-08-22T09:30:11.568Z,89.69
2022-08-22T09:32:40.689Z,89.77
2022-08-22T09:35:18.710Z,90.73
2022-08-22T09:38:15.799Z,88.93
2022-08-22T09:40:47.770Z,89.27
2022-08-22T09:43:26.631Z,93.64
2022-08-22T09:46:10.189Z,90.70
2022-08-22T09:48:38.838Z,91.71
2022-08-22T09:51:28.711Z,89.63
2022-08-22T09:54:14.402Z,85.66
2022-08-22T09:57:08.563Z,85.80
2022-08-22T09:59:36.110Z,86.12
2022-08-22T10:02:15.374Z,86.05
2022-08-22T10:04:58.179Z,87.13
2022-08-22T10:07:55.445Z,88.60
2022-08-22T10:10:42.286Z,88.42
2022-08-22T10:13:38.250Z,88.81
2022-08-22T10:16:26.510Z,89.02
2022-08-22T10:19:18.072Z,89.76
2022-08-22T10:22:05.839Z,90.22
2022-08-22T10:24:59.965Z,89.42
2022-08-22T10:27:52.399Z,90.45
2022-08-22T10:30:25.714Z,89.43
2022-08-22T10:33:13.925Z,91.52
2022-08-22T10:35:57.949Z,90.07
2022-08-22T10:38:43.950Z,87.52
2022-08-22T10:41:28.529Z,86.43
2022-08-22T10:44:04.463Z,87.04
2022-08-22T10:46:51.838Z,87.03
2022-08-22T10:49:33.719Z,87.67
2022-08-22T10:52:15.633Z,87.08
2022-08-22T10:54:56.494Z,88.87
2022-08-22T10:57:32.641Z,89.47
2022-08-22T11:00:06.205Z,86.56
2022-08-22T11:02:47.962Z,87.11
2022-08-22T11:05:27.758Z,88.20
2022-08-22T11:08:15.598Z,86.81
2022-08-22T11:10:58.636Z,85.68
2022-08-22T11:13:42.284Z,87.62
2022-08-22T11:16:21.494Z,87.16
2022-08-22T11:19:15.018Z,86.95
2022-08-22T11:21:45.857Z,86.36
2022-08-22T11:24:35.778Z,87.55
2022-08-22T11:27:21.031Z,83.41
2022-08-22T11:30:18.351Z,86.63
2022-08-22T11:33:10.700Z,87.34
2022-08-22T11:35:49.635Z,85.97
2022-08-22T11:38:33.411Z,80.91
2022-08-22T11:41:09.474Z,82.63
2022-08-22T11:43:45.918Z,81.64
2022-08-22T11:46:19.782Z,82.55
2022-08-22T11:49:19.058Z,83.06
2022-08-22T11:52:01.828Z,82.53
2022-08-22T11:54:43.855Z,85.13
2022-08-22T11:57:17.617Z,84.79
2022-08-22T11:59:45.152Z,84.06
2022-08-22T12:02:19.468Z,83.19
2022-08-22T12:04:55.294Z,82.91
2022-08-22T12:07:33.207Z,83.16
2022-08-22T12:10:16.000Z,83.68
2022-08-22T12:12:42.578Z,83.70
2022-08-22T12:15:28.616Z,84.88
2022-08-22T12:18:08.450Z,82.05
2022-08-22T12:20:52.322Z,81.76
2022-08-22T12:23:38.093Z,80.23
2022-08-22T12:26:28.165Z,82.55
2022-08-22T12:29:19.783Z,82.35
2022-08-22T12:32:35.123Z,83.38
2022-08-22T12:35:32.836Z,84.81
2022-08-22T12:38:29.524Z,84.34
2022-08-22T12:41:28.322Z,84.79
2022-08-22T12:44:32.398Z,86.34
2022-08-22T12:46:59.880Z,86.29
2022-08-22T12:49:52.149Z,85.43
2022-08-22T12:52:41.686Z,87.65
2022-08-22T12:55:21.704Z,86.08
2022-08-22T12:58:16.170Z,84.89
2022-08-22T13:00:47.422Z,86.93
2022-08-22T13:03:32.640Z,86.95
2022-08-22T13:06:04.798Z,87.99
2022-08-22T13:08:41.281Z,87.84
2022-08-22T13:11:22.550Z,87.03
2022-08-22T13:13:57.126Z,85.83
2022-08-22T13:16:26.426Z,86.01
2022-08-22T13:18:54.721Z,85.58
2022-08-22T13:21:31.391Z,84.88
2022-08-22T13:24:06.059Z,84.01
2022-08-22T13:26:46.153Z,85.66
2022-08-22T13:29:26.087Z,86.92
2022-08-22T13:32:00.267Z,86.46
2022-08-22T13:34:40.599Z,86.82
2022-08-22T13:37:16.675Z,87.00
2022-08-22T13:39:49.038Z,88.16
2022-08-22T13:42:30.383Z,87.88
2022-08-22T13:45:02.512Z,88.44
2022-08-22T13:47:32.411Z,89.15
2022-08-22T13:50:19.816Z,89.91
2022-08-22T13:52:55.217Z,90.87
2022-08-22T13:55:49.011Z,91.10
2022-08-22T13:58:35.794Z,92.45
2022-08-22T14:01:14.862Z,92.65
2022-08-22T14:03:55.385Z,93.42
2022-08-22T14:06:38.161Z,95.21
2022-08-22T14:09:24.811Z,96.44
2022-08-22T14:12:06.609Z,99.42
2022-08-22T14:14:42.084Z,100.00
2022-08-22T14:17:17.437Z,100.00
2022-08-22T14:19:52.976Z,100.00
2022-08-22T14:22:31.845Z,100.00
2022-08-22T14:25:07.262Z,100.00
2022-08-22T14:27:43.947Z,100.00
2022-08-22T14:30:18.811Z,100.00
2022-08-22T14:32:55.226Z,100.00
2022-08-22T14:35:35.060Z,100.00
2022-08-22T14:38:20.585Z,100.00
2022-08-22T14:44:29.811Z,100.00
2022-08-22T14:47:48.169Z,100.00
2022-08-22T14:50:02.570Z,100.00
2022-08-22T14:52:37.925Z,100.00
2022-08-22T14:55:40.054Z,99.84
2022-08-22T14:58:21.825Z,100.00
2022-08-22T15:01:19.467Z,100.00
2022-08-22T15:03:56.263Z,100.00
2022-08-22T15:06:47.684Z,100.00
2022-08-22T15:09:31.498Z,100.00
2022-08-22T15:11:58.864Z,96.72
2022-08-22T15:14:52.128Z,97.86
2022-08-22T15:17:38.026Z,97.12
2022-08-22T15:20:13.471Z,97.32
2022-08-22T15:22:46.055Z,97.55
2022-08-22T15:25:21.048Z,96.43
2022-08-22T15:27:53.990Z,96.57
2022-08-22T15:30:44.586Z,93.99
2022-08-22T15:33:21.546Z,94.82
2022-08-22T15:35:49.975Z,96.79
2022-08-22T15:38:27.663Z,96.73
2022-08-22T15:40:55.759Z,97.48
2022-08-22T15:43:26.137Z,98.20
2022-08-22T15:46:28.432Z,96.27
2022-08-22T15:49:02.828Z,95.45
2022-08-22T15:51:32.914Z,95.42
2022-08-22T15:54:24.902Z,94.33
2022-08-22T15:56:52.159Z,94.28
2022-08-22T15:59:54.233Z,93.83
2022-08-22T16:02:35.230Z,94.08
2022-08-22T16:05:20.766Z,93.16
2022-08-22T16:08:12.331Z,93.42
2022-08-22T16:10:45.485Z,91.21
2022-08-22T16:13:27.327Z,93.75
2022-08-22T16:16:11.941Z,93.57
2022-08-22T16:18:39.818Z,94.59
2022-08-22T16:21:09.073Z,93.44
2022-08-22T16:23:51.258Z,93.51
2022-08-22T16:26:23.228Z,92.85
2022-08-22T16:28:58.351Z,93.15
2022-08-22T16:31:29.022Z,94.85
2022-08-22T16:33:59.231Z,94.65
2022-08-22T16:36:43.447Z,94.49
2022-08-22T16:39:32.285Z,97.25
2022-08-22T16:42:15.675Z,97.05
2022-08-22T16:44:42.277Z,96.65
2022-08-22T16:47:14.694Z,94.10
2022-08-22T16:50:00.723Z,94.39
2022-08-22T16:52:27.631Z,95.12
2022-08-22T16:54:57.719Z,95.33
2022-08-22T16:58:04.996Z,95.16
2022-08-22T17:00:48.760Z,96.15
2022-08-22T17:03:32.841Z,96.36
2022-08-22T17:06:15.740Z,96.57
2022-08-22T17:09:14.508Z,98.34
2022-08-22T17:12:12.676Z,98.04
2022-08-22T17:14:40.282Z,97.98
2022-08-22T17:17:46.867Z,100.00
2022-08-22T17:20:29.859Z,100.00
2022-08-22T17:23:22.609Z,100.00
2022-08-22T17:26:07.742Z,100.00
2022-08-22T17:28:51.788Z,100.00
2022-08-22T17:31:45.352Z,100.00
2022-08-22T17:34:32.286Z,100.00
2022-08-22T17:37:22.128Z,100.00
2022-08-22T17:40:13.269Z,100.00
2022-08-22T17:42:40.937Z,100.00
2022-08-22T17:45:07.999Z,100.00
2022-08-22T17:47:47.340Z,100.00
2022-08-22T17:50:21.418Z,100.00
2022-08-22T17:52:55.753Z,100.00
2022-08-22T17:55:26.812Z,100.00
2022-08-22T17:57:57.496Z,100.00
2022-08-22T18:00:28.453Z,100.00
2022-08-22T18:03:10.310Z,100.00
2022-08-22T18:06:02.339Z,100.00
2022-08-22T18:11:46.974Z,100.00
2022-08-22T18:14:28.738Z,100.00
2022-08-22T18:16:59.291Z,100.00
2022-08-22T18:19:55.428Z,100.00
2022-08-22T18:22:34.962Z,100.00
2022-08-22T18:25:06.427Z,100.00
2022-08-22T18:27:49.473Z,100.00
2022-08-22T18:30:36.725Z,100.00
2022-08-22T18:33:12.199Z,100.00
2022-08-22T18:35:53.814Z,100.00
2022-08-22T18:38:29.499Z,100.00
2022-08-22T18:41:06.874Z,100.00
2022-08-22T18:43:36.423Z,100.00
2022-08-22T18:46:39.809Z,100.00
2022-08-22T18:49:33.856Z,100.00
2022-08-22T18:52:17.949Z,100.00
2022-08-22T18:54:50.830Z,100.00
2022-08-22T18:57:42.721Z,100.00
2022-08-22T19:00:25.889Z,100.00
2022-08-22T19:03:07.751Z,100.00
2022-08-22T19:06:05.109Z,100.00
2022-08-22T19:08:50.440Z,100.00
2022-08-22T19:11:36.421Z,100.00
2022-08-22T19:14:19.847Z,100.00
2022-08-22T19:16:59.124Z,100.00
2022-08-22T19:20:09.964Z,100.00
2022-08-22T19:22:37.051Z,100.00
2022-08-22T19:25:27.207Z,100.00
2022-08-22T19:28:13.743Z,100.00
2022-08-22T19:30:47.723Z,100.00
2022-08-22T19:33:34.816Z,100.00
2022-08-22T19:36:05.564Z,100.00
2022-08-22T19:38:57.495Z,100.00
2022-08-22T19:41:56.891Z,100.00
2022-08-22T19:44:23.494Z,100.00
2022-08-22T19:47:26.841Z,100.00
2022-08-22T19:49:54.427Z,100.00
2022-08-22T19:52:44.810Z,100.00
2022-08-22T19:55:26.159Z,100.00
2022-08-22T19:57:52.750Z,100.00
2022-08-22T20:00:24.681Z,100.00
2022-08-22T20:03:14.066Z,100.00
2022-08-22T20:06:05.913Z,100.00
2022-08-22T20:08:55.538Z,100.00
2022-08-22T20:11:46.589Z,100.00
2022-08-22T20:14:30.919Z,100.00
2022-08-22T20:17:01.030Z,100.00
2022-08-22T20:22:43.175Z,100.00
2022-08-22T20:25:17.059Z,100.00
2022-08-22T20:28:05.035Z,100.00
2022-08-22T20:30:38.886Z,100.00
2022-08-22T20:33:10.779Z,100.00
2022-08-22T20:35:50.575Z,100.00
2022-08-22T20:38:22.409Z,100.00
2022-08-22T20:41:11.375Z,100.00
2022-08-22T20:43:50.629Z,100.00
2022-08-22T20:46:53.627Z,100.00
2022-08-22T20:49:37.703Z,100.00
2022-08-22T20:52:29.214Z,100.00
2022-08-22T20:55:07.016Z,100.00
2022-08-22T20:57:35.600Z,100.00
2022-08-22T21:00:11.730Z,100.00
2022-08-22T21:02:44.924Z,100.00
2022-08-22T21:05:11.499Z,100.00
2022-08-22T21:07:41.559Z,100.00
2022-08-22T21:10:31.639Z,100.00
2022-08-22T21:13:14.002Z,100.00
2022-08-22T21:15:45.786Z,100.00
2022-08-22T21:18:25.478Z,100.00
2022-08-22T21:20:52.540Z,100.00
2022-08-22T21:23:19.934Z,100.00
2022-08-22T21:25:57.334Z,100.00
2022-08-22T21:28:32.801Z,100.00
2022-08-22T21:31:06.936Z,100.00
2022-08-22T21:33:33.644Z,100.00
2022-08-22T21:36:00.866Z,100.00
2022-08-22T21:38:28.146Z,100.00
2022-08-22T21:41:01.845Z,100.00
2022-08-22T21:43:33.525Z,100.00
2022-08-22T21:46:00.275Z,100.00
2022-08-22T21:48:44.984Z,100.00
2022-08-22T21:51:26.917Z,100.00
2022-08-22T21:54:28.969Z,100.00
2022-08-22T21:56:59.274Z,100.00
2022-08-22T21:59:50.898Z,100.00
2022-08-22T22:02:39.692Z,100.00
2022-08-22T22:05:13.022Z,100.00
2022-08-22T22:07:42.001Z,100.00
2022-08-22T22:10:10.940Z,100.00
2022-08-22T22:12:43.321Z,100.00
2022-08-22T22:15:14.850Z,100.00
2022-08-22T22:17:41.672Z,100.00
2022-08-22T22:20:09.408Z,100.00
2022-08-22T22:22:37.029Z,100.00
2022-08-22T22:25:40.188Z,100.00
2022-08-22T22:27:58.659Z,100.00
2022-08-22T22:30:25.704Z,100.00
2022-08-22T22:32:52.491Z,100.00
2022-08-22T22:35:21.464Z,100.00
2022-08-22T22:37:48.125Z,100.00
2022-08-22T22:40:15.314Z,100.00
2022-08-22T22:42:42.039Z,100.00
2022-08-22T22:45:10.673Z,100.00
2022-08-22T22:47:40.587Z,100.00
2022-08-22T22:50:08.481Z,100.00
2022-08-22T22:52:38.514Z,100.00
2022-08-22T22:55:09.078Z,100.00
2022-08-22T22:57:41.292Z,100.00
2022-08-22T23:00:12.545Z,100.00
2022-08-22T23:02:39.874Z,100.00
2022-08-22T23:05:08.715Z,100.00
2022-08-22T23:07:37.264Z,100.00
2022-08-22T23:10:07.169Z,100.00
2022-08-22T23:12:37.429Z,100.00
2022-08-22T23:15:06.624Z,100.00
2022-08-22T23:17:34.092Z,100.00
2022-08-22T23:20:01.004Z,100.00
2022-08-22T23:22:27.835Z,100.00
2022-08-22T23:24:54.504Z,100.00
2022-08-22T23:27:21.122Z,100.00
2022-08-22T23:29:47.748Z,100.00
2022-08-22T23:32:15.077Z,100.00
2022-08-22T23:34:46.111Z,100.00
2022-08-22T23:37:17.681Z,100.00
2022-08-22T23:39:44.674Z,100.00
2022-08-22T23:42:12.796Z,100.00
2022-08-22T23:44:40.958Z,100.00
2022-08-22T23:47:09.495Z,100.00
2022-08-22T23:49:37.897Z,100.00
2022-08-22T23:52:06.176Z,100.00
2022-08-22T23:54:33.880Z,100.00
2022-08-22T23:57:03.173Z,100.00
2022-08-22T23:59:43.365Z,100.00
